createdAt,value
2022-11-01T00:01:33.014Z,5.00
2022-11-01T00:03:59.885Z,5.18
2022-11-01T00:06:26.706Z,4.95
2022-11-01T00:08:54.651Z,5.45
2022-11-01T00:11:22.480Z,5.72
2022-11-01T00:13:50.814Z,5.22
2022-11-01T00:16:18.992Z,5.18
2022-11-01T00:18:46.436Z,5.22
2022-11-01T00:21:14.493Z,4.70
2022-11-01T00:23:41.429Z,5.57
2022-11-01T00:26:09.782Z,4.70
2022-11-01T00:28:36.673Z,4.70
2022-11-01T00:31:06.623Z,4.60
2022-11-01T00:33:38.272Z,5.68
2022-11-01T00:36:06.148Z,5.63
2022-11-01T00:38:33.262Z,4.82
2022-11-01T00:41:03.834Z,5.20
2022-11-01T00:43:35.418Z,5.50
2022-11-01T00:46:03.058Z,4.57
2022-11-01T00:48:29.994Z,4.68
2022-11-01T00:50:56.904Z,4.18
2022-11-01T00:53:23.699Z,5.13
2022-11-01T00:55:50.734Z,3.75
2022-11-01T00:58:18.837Z,4.50
2022-11-01T01:00:47.230Z,5.57
2022-11-01T01:03:14.193Z,5.22
2022-11-01T01:05:42.368Z,4.97
2022-11-01T01:08:09.238Z,4.82
2022-11-01T01:10:36.508Z,4.22
2022-11-01T01:13:03.889Z,3.25
2022-11-01T01:15:31.112Z,4.35
2022-11-01T01:17:58.185Z,4.05
2022-11-01T01:20:25.076Z,3.30
2022-11-01T01:22:52.483Z,2.75
2022-11-01T01:25:20.887Z,4.22
2022-11-01T01:27:47.789Z,3.80
2022-11-01T01:30:16.041Z,3.78
2022-11-01T01:32:43.334Z,2.67
2022-11-01T01:35:11.104Z,3.60
2022-11-01T01:37:40.072Z,3.13
2022-11-01T01:40:08.890Z,3.30
2022-11-01T01:42:40.716Z,3.70
2022-11-01T01:45:37.651Z,3.08
2022-11-01T01:48:13.899Z,3.22
2022-11-01T01:50:53.440Z,2.60
2022-11-01T01:53:34.671Z,2.75
2022-11-01T01:56:03.683Z,2.08
2022-11-01T01:58:39.471Z,2.70
2022-11-01T02:01:07.746Z,2.53
2022-11-01T02:03:36.435Z,3.08
2022-11-01T02:06:08.967Z,2.67
2022-11-01T02:11:08.327Z,1.90
2022-11-01T02:13:38.091Z,2.13
2022-11-01T02:16:26.935Z,1.73
2022-11-01T02:19:27.707Z,1.73
2022-11-01T02:22:09.863Z,2.22
2022-11-01T02:24:36.675Z,1.63
2022-11-01T02:27:16.510Z,1.70
2022-11-01T02:30:06.257Z,2.03
2022-11-01T02:32:43.900Z,2.00
2022-11-01T02:35:24.761Z,1.60
2022-11-01T02:38:22.538Z,2.05
2022-11-01T02:41:15.867Z,1.65
2022-11-01T02:44:04.343Z,1.50
2022-11-01T02:47:03.402Z,1.27
2022-11-01T02:49:43.307Z,2.20
2022-11-01T02:52:15.679Z,1.35
2022-11-01T02:54:58.386Z,1.38
2022-11-01T02:57:36.535Z,1.50
2022-11-01T03:00:25.918Z,1.33
2022-11-01T03:03:14.976Z,1.25
2022-11-01T03:05:47.860Z,0.90
2022-11-01T03:08:23.858Z,1.13
2022-11-01T03:11:05.463Z,1.13
2022-11-01T03:13:36.671Z,0.90
2022-11-01T03:16:21.724Z,1.00
2022-11-01T03:19:21.148Z,1.00
2022-11-01T03:22:03.908Z,0.85
2022-11-01T03:27:11.876Z,0.70
2022-11-01T03:29:45.567Z,0.90
2022-11-01T03:32:15.372Z,1.48
2022-11-01T03:34:43.489Z,1.20
2022-11-01T03:37:12.438Z,1.05
2022-11-01T03:39:45.396Z,1.13
2022-11-01T03:42:21.614Z,1.48
2022-11-01T03:44:52.579Z,0.93
2022-11-01T03:47:19.667Z,1.38
2022-11-01T03:49:46.617Z,1.00
2022-11-01T03:52:14.477Z,1.88
2022-11-01T03:54:41.407Z,1.40
2022-11-01T03:57:08.412Z,1.10
2022-11-01T03:59:37.351Z,0.70
2022-11-01T04:02:04.306Z,0.98
2022-11-01T04:04:31.736Z,1.42
2022-11-01T04:06:58.545Z,1.00
2022-11-01T04:09:25.411Z,0.85
2022-11-01T04:12:04.270Z,0.70
2022-11-01T04:14:49.490Z,0.73
2022-11-01T04:17:35.791Z,1.20
2022-11-01T04:20:22.075Z,0.70
2022-11-01T04:22:49.293Z,0.80
2022-11-01T04:25:16.086Z,0.90
2022-11-01T04:27:45.551Z,1.10
2022-11-01T04:30:12.586Z,0.77
2022-11-01T04:32:44.280Z,0.60
2022-11-01T04:35:12.270Z,0.93
2022-11-01T04:37:40.215Z,0.95
2022-11-01T04:40:07.669Z,1.20
2022-11-01T04:42:35.644Z,1.00
2022-11-01T04:45:05.743Z,0.73
2022-11-01T04:47:32.876Z,0.93
2022-11-01T04:49:59.651Z,1.88
2022-11-01T04:52:26.729Z,0.90
2022-11-01T04:54:53.569Z,0.75
2022-11-01T04:57:23.023Z,1.67
2022-11-01T04:59:54.111Z,1.15
2022-11-01T05:02:22.603Z,1.02
2022-11-01T05:04:50.088Z,1.00
2022-11-01T05:07:17.076Z,0.90
2022-11-01T05:09:44.032Z,1.50
2022-11-01T05:12:10.848Z,1.10
2022-11-01T05:14:37.647Z,1.17
2022-11-01T05:17:04.473Z,1.10
2022-11-01T05:19:31.250Z,1.02
2022-11-01T05:21:59.722Z,1.10
2022-11-01T05:24:27.763Z,1.05
2022-11-01T05:26:54.608Z,0.93
2022-11-01T05:29:32.399Z,1.15
2022-11-01T05:31:59.995Z,1.48
2022-11-01T05:34:27.643Z,1.23
2022-11-01T05:36:54.549Z,1.33
2022-11-01T05:39:22.850Z,0.82
2022-11-01T05:41:49.961Z,0.77
2022-11-01T05:44:17.759Z,1.92
2022-11-01T05:46:44.563Z,0.95
2022-11-01T05:49:12.301Z,1.20
2022-11-01T05:51:39.295Z,1.63
2022-11-01T05:54:07.240Z,1.65
2022-11-01T05:56:33.991Z,1.63
2022-11-01T05:59:00.788Z,1.35
2022-11-01T06:01:27.612Z,1.45
2022-11-01T06:03:55.631Z,1.27
2022-11-01T06:06:23.471Z,1.63
2022-11-01T06:08:50.622Z,1.50
2022-11-01T06:11:17.456Z,1.85
2022-11-01T06:13:44.271Z,1.25
2022-11-01T06:16:12.405Z,1.75
2022-11-01T06:18:39.403Z,1.80
2022-11-01T06:21:06.265Z,1.40
2022-11-01T06:23:33.065Z,1.58
2022-11-01T06:26:01.822Z,1.60
2022-11-01T06:28:28.721Z,1.00
2022-11-01T06:31:02.611Z,1.98
2022-11-01T06:33:30.821Z,2.15
2022-11-01T06:35:58.043Z,1.80
2022-11-01T06:38:24.980Z,1.45
2022-11-01T06:40:52.028Z,2.63
2022-11-01T06:43:19.039Z,1.23
2022-11-01T06:45:45.848Z,1.70
2022-11-01T06:48:13.828Z,1.98
2022-11-01T06:50:40.645Z,1.88
2022-11-01T06:53:07.434Z,1.73
2022-11-01T06:55:34.250Z,1.95
2022-11-01T06:58:03.475Z,1.80
2022-11-01T07:00:32.427Z,2.70
2022-11-01T07:03:04.700Z,1.77
2022-11-01T07:05:36.984Z,2.30
2022-11-01T07:08:08.104Z,1.85
2022-11-01T07:10:37.415Z,1.13
2022-11-01T07:13:06.714Z,1.55
2022-11-01T07:15:35.488Z,1.60
2022-11-01T07:18:05.559Z,1.73
2022-11-01T07:20:42.466Z,2.00
2022-11-01T07:23:15.820Z,1.67
2022-11-01T07:25:43.368Z,1.80
2022-11-01T07:28:11.133Z,1.58
2022-11-01T07:30:39.084Z,1.70
2022-11-01T07:33:06.479Z,1.60
2022-11-01T07:35:34.880Z,2.53
2022-11-01T07:38:05.024Z,1.27
2022-11-01T07:40:36.091Z,2.03
2022-11-01T07:43:04.585Z,1.15
2022-11-01T07:45:33.480Z,1.80
2022-11-01T07:48:05.802Z,2.10
2022-11-01T07:50:34.275Z,1.98
2022-11-01T07:53:08.458Z,1.92
2022-11-01T07:55:36.414Z,2.88
2022-11-01T07:58:05.959Z,1.20
2022-11-01T08:03:19.287Z,2.33
2022-11-01T08:05:49.224Z,1.83
2022-11-01T08:08:16.569Z,1.80
2022-11-01T08:10:45.236Z,1.92
2022-11-01T08:13:16.099Z,2.05
2022-11-01T08:15:45.103Z,1.70
2022-11-01T08:18:12.246Z,1.80
2022-11-01T08:20:40.988Z,1.60
2022-11-01T08:23:09.767Z,1.60
2022-11-01T08:25:40.040Z,1.75
2022-11-01T08:28:15.781Z,2.20
2022-11-01T08:30:46.939Z,1.85
2022-11-01T08:33:16.073Z,1.83
2022-11-01T08:35:50.155Z,1.30
2022-11-01T08:38:19.724Z,1.80
2022-11-01T08:40:48.694Z,1.63
2022-11-01T08:43:18.268Z,1.40
2022-11-01T08:46:15.200Z,2.00
2022-11-01T08:48:47.444Z,2.33
2022-11-01T08:51:24.452Z,1.90
2022-11-01T08:54:01.772Z,2.45
2022-11-01T08:56:29.679Z,2.15
2022-11-01T08:58:57.994Z,2.35
2022-11-01T09:01:27.152Z,1.80
2022-11-01T09:04:05.395Z,2.15
2022-11-01T09:06:36.264Z,2.67
2022-11-01T09:09:04.455Z,1.85
2022-11-01T09:11:32.379Z,2.60
2022-11-01T09:14:01.331Z,2.13
2022-11-01T09:16:32.813Z,3.03
2022-11-01T09:19:01.853Z,2.13
2022-11-01T09:21:31.939Z,2.05
2022-11-01T09:24:02.576Z,1.90
2022-11-01T09:26:29.664Z,2.13
2022-11-01T09:28:58.720Z,2.83
2022-11-01T09:31:25.962Z,2.35
2022-11-01T09:33:57.335Z,1.90
2022-11-01T09:36:30.851Z,2.08
2022-11-01T09:38:59.515Z,3.15
2022-11-01T09:41:38.839Z,2.22
2022-11-01T09:44:13.353Z,2.35
2022-11-01T09:46:52.129Z,1.90
2022-11-01T09:49:33.498Z,1.80
2022-11-01T09:52:00.531Z,2.17
2022-11-01T09:54:28.987Z,2.63
2022-11-01T09:57:23.678Z,2.22
2022-11-01T10:00:04.216Z,1.63
2022-11-01T10:03:01.396Z,2.25
2022-11-01T10:06:05.824Z,1.27
2022-11-01T10:08:42.688Z,2.00
2022-11-01T10:11:22.189Z,2.63
2022-11-01T10:14:05.199Z,2.30
2022-11-01T10:16:43.967Z,2.03
2022-11-01T10:19:21.952Z,2.63
2022-11-01T10:22:01.042Z,2.20
2022-11-01T10:24:38.631Z,2.13
2022-11-01T10:27:13.136Z,2.47
2022-11-01T10:30:02.655Z,2.30
2022-11-01T10:32:49.846Z,2.15
2022-11-01T10:35:20.935Z,2.80
2022-11-01T10:38:30.272Z,1.67
2022-11-01T10:41:23.533Z,2.28
2022-11-01T10:46:27.191Z,1.88
2022-11-01T10:49:00.568Z,1.95
2022-11-01T10:51:31.857Z,1.70
2022-11-01T10:54:04.994Z,2.17
2022-11-01T10:56:37.323Z,2.53
2022-11-01T10:59:11.741Z,2.20
2022-11-01T11:01:44.174Z,1.90
2022-11-01T11:06:44.300Z,1.90
2022-11-01T11:09:36.733Z,2.03
2022-11-01T11:12:15.394Z,2.20
2022-11-01T11:14:48.160Z,2.13
2022-11-01T11:17:26.282Z,2.20
2022-11-01T11:19:53.662Z,2.22
2022-11-01T11:22:23.027Z,2.05
2022-11-01T11:24:52.803Z,2.40
2022-11-01T11:27:34.208Z,2.35
2022-11-01T11:30:05.351Z,2.22
2022-11-01T11:32:33.674Z,1.95
2022-11-01T11:35:05.424Z,1.00
2022-11-01T11:37:34.911Z,2.00
2022-11-01T11:40:20.789Z,2.80
2022-11-01T11:42:50.455Z,1.67
2022-11-01T11:45:23.096Z,1.73
2022-11-01T11:47:51.651Z,2.20
2022-11-01T11:50:19.502Z,1.80
2022-11-01T11:53:18.223Z,2.30
2022-11-01T11:55:59.937Z,1.80
2022-11-01T11:58:41.224Z,1.37
2022-11-01T12:01:26.786Z,2.58
2022-11-01T12:04:06.083Z,2.20
2022-11-01T12:06:42.700Z,2.35
2022-11-01T12:09:37.484Z,1.58
2022-11-01T12:12:16.612Z,2.03
2022-11-01T12:14:45.919Z,1.90
2022-11-01T12:17:35.254Z,2.33
2022-11-01T12:20:20.075Z,2.33
2022-11-01T12:23:08.157Z,2.00
2022-11-01T12:25:37.277Z,1.80
2022-11-01T12:28:26.904Z,2.65
2022-11-01T12:31:00.295Z,1.90
2022-11-01T12:33:37.327Z,2.05
2022-11-01T12:36:07.735Z,2.00
2022-11-01T12:38:48.508Z,2.28
2022-11-01T12:41:47.448Z,1.63
2022-11-01T12:44:29.262Z,2.08
2022-11-01T12:47:09.816Z,2.30
2022-11-01T12:50:03.386Z,2.15
2022-11-01T12:52:37.533Z,1.85
2022-11-01T12:55:34.489Z,2.17
2022-11-01T12:58:08.337Z,2.30
2022-11-01T13:00:55.654Z,2.53
2022-11-01T13:04:05.883Z,1.67
2022-11-01T13:07:10.147Z,1.60
2022-11-01T13:09:42.407Z,1.48
2022-11-01T13:12:27.198Z,2.20
2022-11-01T13:15:09.446Z,2.05
2022-11-01T13:17:47.414Z,2.10
2022-11-01T13:20:37.952Z,1.55
2022-11-01T13:23:30.998Z,1.70
2022-11-01T13:26:19.786Z,1.75
2022-11-01T13:28:55.776Z,1.92
2022-11-01T13:31:47.601Z,1.65
2022-11-01T13:34:41.916Z,1.65
2022-11-01T13:37:32.959Z,1.90
2022-11-01T13:40:28.021Z,1.80
2022-11-01T13:43:11.129Z,1.77
2022-11-01T13:45:53.595Z,1.98
2022-11-01T13:49:25.507Z,2.08
2022-11-01T13:51:58.043Z,1.83
2022-11-01T13:57:00.263Z,1.60
2022-11-01T13:59:37.336Z,1.98
2022-11-01T14:02:22.624Z,1.52
2022-11-01T14:05:02.778Z,1.20
2022-11-01T14:07:37.401Z,2.13
2022-11-01T14:10:22.573Z,2.58
2022-11-01T14:13:15.113Z,1.98
2022-11-01T14:15:55.540Z,2.45
2022-11-01T14:18:22.912Z,2.10
2022-11-01T14:20:54.196Z,2.33
2022-11-01T14:23:28.237Z,2.30
2022-11-01T14:26:24.857Z,1.60
2022-11-01T14:28:55.231Z,1.80
2022-11-01T14:31:27.591Z,1.35
2022-11-01T14:33:59.905Z,1.63
2022-11-01T14:36:37.171Z,2.10
2022-11-01T14:39:09.241Z,1.90
2022-11-01T14:41:40.738Z,1.77
2022-11-01T14:44:33.435Z,2.42
2022-11-01T14:47:06.419Z,2.15
2022-11-01T14:49:43.200Z,1.60
2022-11-01T14:52:22.780Z,1.85
2022-11-01T14:55:15.538Z,2.05
2022-11-01T14:57:43.088Z,1.67
2022-11-01T15:00:28.471Z,2.13
2022-11-01T15:05:28.363Z,1.85
2022-11-01T15:07:59.198Z,2.38
2022-11-01T15:10:27.923Z,2.05
2022-11-01T15:12:59.920Z,2.65
2022-11-01T15:15:31.258Z,1.90
2022-11-01T15:18:06.770Z,1.98
2022-11-01T15:20:48.605Z,2.30
2022-11-01T15:23:29.616Z,2.17
2022-11-01T15:26:01.085Z,1.42
2022-11-01T15:28:39.399Z,2.67
2022-11-01T15:31:09.884Z,2.17
2022-11-01T15:33:38.649Z,2.05
2022-11-01T15:36:20.433Z,1.90
2022-11-01T15:38:57.709Z,2.15
2022-11-01T15:41:33.452Z,1.50
2022-11-01T15:44:03.436Z,2.40
2022-11-01T15:46:42.796Z,1.92
2022-11-01T15:49:16.151Z,2.58
2022-11-01T15:51:52.546Z,2.80
2022-11-01T15:54:43.375Z,2.28
2022-11-01T15:57:41.590Z,2.00
2022-11-01T16:00:18.199Z,2.03
2022-11-01T16:02:58.924Z,1.75
2022-11-01T16:05:32.010Z,2.10
2022-11-01T16:07:59.783Z,1.23
2022-11-01T16:10:29.824Z,2.08
2022-11-01T16:12:59.902Z,1.88
2022-11-01T16:15:33.130Z,2.17
2022-11-01T16:18:02.474Z,1.80
2022-11-01T16:20:40.887Z,1.45
2022-11-01T16:23:23.841Z,2.08
2022-11-01T16:26:08.534Z,2.40
2022-11-01T16:28:40.797Z,2.10
2022-11-01T16:31:28.520Z,1.92
2022-11-01T16:33:57.640Z,2.80
2022-11-01T16:36:35.547Z,2.13
2022-11-01T16:39:03.178Z,2.60
2022-11-01T16:41:40.820Z,2.33
2022-11-01T16:44:22.502Z,2.28
2022-11-01T16:46:50.905Z,2.17
2022-11-01T16:49:25.462Z,1.80
2022-11-01T16:51:56.762Z,2.92
2022-11-01T16:54:26.750Z,1.52
2022-11-01T16:56:58.357Z,2.05
2022-11-01T16:59:27.231Z,1.75
2022-11-01T17:01:58.408Z,2.67
2022-11-01T17:04:27.182Z,1.70
2022-11-01T17:06:58.019Z,1.90
2022-11-01T17:09:37.268Z,2.05
2022-11-01T17:12:09.114Z,2.00
2022-11-01T17:14:37.789Z,1.92
2022-11-01T17:17:14.403Z,2.40
2022-11-01T17:19:44.742Z,2.20
2022-11-01T17:25:09.414Z,2.13
2022-11-01T17:27:36.583Z,2.35
2022-11-01T17:30:05.163Z,2.22
2022-11-01T17:32:37.110Z,2.75
2022-11-01T17:35:09.766Z,2.28
2022-11-01T17:37:40.343Z,2.90
2022-11-01T17:40:25.766Z,2.20
2022-11-01T17:42:58.459Z,2.35
2022-11-01T17:45:26.677Z,1.83
2022-11-01T17:47:54.869Z,2.35
2022-11-01T17:50:22.397Z,2.97
2022-11-01T17:52:53.817Z,2.15
2022-11-01T17:55:22.756Z,1.98
2022-11-01T17:57:49.791Z,2.70
2022-11-01T18:00:18.043Z,2.28
2022-11-01T18:02:47.439Z,1.70
2022-11-01T18:05:14.582Z,2.30
2022-11-01T18:07:47.778Z,2.45
2022-11-01T18:10:25.806Z,2.60
2022-11-01T18:13:17.589Z,2.50
2022-11-01T18:15:59.485Z,2.38
2022-11-01T18:18:39.526Z,1.90
2022-11-01T18:21:27.422Z,2.10
2022-11-01T18:23:57.320Z,2.72
2022-11-01T18:29:17.992Z,2.00
2022-11-01T18:31:54.330Z,2.22
2022-11-01T18:34:32.924Z,1.38
2022-11-01T18:37:31.861Z,1.92
2022-11-01T18:40:03.420Z,2.28
2022-11-01T18:42:31.509Z,2.63
2022-11-01T18:45:15.701Z,1.83
2022-11-01T18:47:53.797Z,2.15
2022-11-01T18:50:24.537Z,1.23
2022-11-01T18:53:13.170Z,1.92
2022-11-01T18:55:51.862Z,1.80
2022-11-01T18:58:30.027Z,1.30
2022-11-01T19:01:13.493Z,2.05
2022-11-01T19:06:27.189Z,2.05
2022-11-01T19:08:59.969Z,2.30
2022-11-01T19:11:30.128Z,1.48
2022-11-01T19:17:27.421Z,1.20
2022-11-01T19:19:58.067Z,1.63
2022-11-01T19:22:43.728Z,1.65
2022-11-01T19:25:25.505Z,2.88
2022-11-01T19:31:29.076Z,2.15
2022-11-01T19:34:29.813Z,1.45
2022-11-01T19:37:02.307Z,1.95
2022-11-01T19:39:47.062Z,1.80
2022-11-01T19:42:35.293Z,2.08
2022-11-01T19:45:20.845Z,1.67
2022-11-01T19:47:52.224Z,1.90
2022-11-01T19:50:26.570Z,2.70
2022-11-01T19:52:58.508Z,2.47
2022-11-01T19:55:29.093Z,1.80
2022-11-01T19:58:00.654Z,1.55
2022-11-01T20:00:29.555Z,1.75
2022-11-01T20:03:00.799Z,1.92
2022-11-01T20:05:34.443Z,2.13
2022-11-01T20:08:23.454Z,2.47
2022-11-01T20:10:56.485Z,2.83
2022-11-01T20:13:23.578Z,2.22
2022-11-01T20:15:51.834Z,2.80
2022-11-01T20:18:18.625Z,1.25
2022-11-01T20:20:46.609Z,2.15
2022-11-01T20:23:32.867Z,2.22
2022-11-01T20:26:01.861Z,2.20
2022-11-01T20:28:33.035Z,1.90
2022-11-01T20:31:00.363Z,2.28
2022-11-01T20:33:31.774Z,2.40
2022-11-01T20:36:01.065Z,3.05
2022-11-01T20:38:28.328Z,2.67
2022-11-01T20:40:55.217Z,3.33
2022-11-01T20:43:22.195Z,2.35
2022-11-01T20:45:49.031Z,2.53
2022-11-01T20:48:18.297Z,2.60
2022-11-01T20:50:45.693Z,2.15
2022-11-01T20:53:14.383Z,2.85
2022-11-01T20:55:43.610Z,2.83
2022-11-01T20:58:11.267Z,2.78
2022-11-01T21:00:38.990Z,2.33
2022-11-01T21:03:15.930Z,2.33
2022-11-01T21:05:45.447Z,1.52
2022-11-01T21:08:24.075Z,2.40
2022-11-01T21:10:54.171Z,1.88
2022-11-01T21:13:24.319Z,2.03
2022-11-01T21:15:52.870Z,2.45
2022-11-01T21:18:19.886Z,2.72
2022-11-01T21:20:48.352Z,2.40
2022-11-01T21:23:35.629Z,2.22
2022-11-01T21:26:15.478Z,2.38
2022-11-01T21:29:08.668Z,2.45
2022-11-01T21:31:39.467Z,1.95
2022-11-01T21:34:23.343Z,2.20
2022-11-01T21:36:52.516Z,2.67
2022-11-01T21:39:23.165Z,1.90
2022-11-01T21:42:19.168Z,1.90
2022-11-01T21:44:47.388Z,1.58
2022-11-01T21:47:51.372Z,1.70
2022-11-01T21:50:21.504Z,1.80
2022-11-01T21:52:51.590Z,1.60
2022-11-01T21:55:21.775Z,2.00
2022-11-01T21:58:00.251Z,2.95
2022-11-01T22:01:21.545Z,1.80
2022-11-01T22:04:16.461Z,2.00
2022-11-01T22:06:45.232Z,2.28
2022-11-01T22:10:05.263Z,1.92
2022-11-01T22:12:32.203Z,2.08
2022-11-01T22:15:01.151Z,2.00
2022-11-01T22:17:28.064Z,1.90
2022-11-01T22:19:54.861Z,2.15
2022-11-01T22:22:21.667Z,2.08
2022-11-01T22:24:50.504Z,1.88
2022-11-01T22:27:17.347Z,1.13
2022-11-01T22:29:44.190Z,2.30
2022-11-01T22:32:12.188Z,1.92
2022-11-01T22:34:38.974Z,2.00
2022-11-01T22:37:15.210Z,2.22
2022-11-01T22:39:42.333Z,1.92
2022-11-01T22:42:12.461Z,2.20
2022-11-01T22:44:45.718Z,1.48
2022-11-01T22:47:26.368Z,2.15
2022-11-01T22:50:01.209Z,2.15
2022-11-01T22:52:44.572Z,1.42
2022-11-01T22:55:15.332Z,1.33
2022-11-01T22:57:47.886Z,2.03
2022-11-01T23:03:14.621Z,1.50
2022-11-01T23:05:44.480Z,1.90
2022-11-01T23:08:27.751Z,2.05
2022-11-01T23:10:57.270Z,2.10
2022-11-01T23:13:52.954Z,1.80
2022-11-01T23:16:39.473Z,2.60
2022-11-01T23:19:10.673Z,1.95
2022-11-01T23:21:38.783Z,2.13
2022-11-01T23:24:07.954Z,1.70
2022-11-01T23:26:37.934Z,1.77
2022-11-01T23:29:06.984Z,2.00
2022-11-01T23:31:40.002Z,1.95
2022-11-01T23:34:10.215Z,2.65
2022-11-01T23:36:41.588Z,2.30
2022-11-01T23:39:12.863Z,2.35
2022-11-01T23:41:46.967Z,2.10
2022-11-01T23:44:25.788Z,1.80
2022-11-01T23:46:52.996Z,1.83
2022-11-01T23:49:23.667Z,1.83
2022-11-01T23:51:52.792Z,1.48
2022-11-01T23:54:31.501Z,1.65
2022-11-01T23:56:58.452Z,1.30
2022-11-01T23:59:25.696Z,1.92
